X  Sluiten METAR luchtvaart weer gegevens      EHVK Volkel Air Base
Temperatuur
13°C Temperatuur
6°C Dauwpunt
63% Vochtigheid



Wind
11 KM/U
7 MPH
3 M/S
6 KTS



180°
Zuid
Huidig weer

Geheel bewolkt Geheel bewolkt
Luchtdruk 1019.92 (hPa) - 30.12 (inHg)
Zicht 6.2 (mijl) - 10 (km)
Vliegveld
Vliegveld code EHVK

Locatie : Volkel Air Base
Afstand: 22 (km)

Metar:
EHVK 171425Z AUTO 18006KT 160V230 9999 OVC100 13/06 Q1020 BLU

Tijd: 17-10-2021 16:25 CEST